Time;durP1;ratioP1;P1;durP2;ratioP2;P2;SDS_P1;SDS_P2;PMS_P1;PMS_P2;Temp;Humidity;BMP_temperature;BMP_pressure;BME280_temperature;BME280_humidity;BME280_pressure;Samples;Min_cycle;Max_cycle;Signal;HPM_P1;HPM_P2
2021/06/16 00:00:32;;;;;;;16.73;9.87;;;19.20;99.90;;;;;;4426234;32;20462;-70
2021/06/16 00:02:59;;;;;;;20.30;11.43;;;19.20;99.90;;;;;;4427743;32;20182;-70
2021/06/16 00:05:31;;;;;;;20.10;12.43;;;19.00;99.90;;;;;;4427640;32;20139;-70
2021/06/16 00:07:58;;;;;;;22.73;12.60;;;19.00;99.90;;;;;;4427827;32;20433;-70
2021/06/16 00:10:33;;;;;;;24.10;12.77;;;18.90;99.90;;;;;;4427585;32;20147;-70
2021/06/16 00:13:01;;;;;;;24.03;13.77;;;18.80;99.90;;;;;;4427480;32;20232;-70
2021/06/16 00:15:32;;;;;;;23.87;12.97;;;18.80;99.90;;;;;;4425936;32;20187;-69
2021/06/16 00:18:00;;;;;;;19.93;13.30;;;18.60;99.90;;;;;;4427366;32;20229;-70
2021/06/16 00:20:27;;;;;;;23.67;13.57;;;18.60;99.90;;;;;;4427213;32;20553;-69
2021/06/16 00:22:54;;;;;;;24.23;13.07;;;18.50;99.90;;;;;;4427363;32;20225;-69
2021/06/16 00:25:21;;;;;;;22.93;13.07;;;18.40;99.90;;;;;;4425135;32;20195;-69
2021/06/16 00:27:48;;;;;;;21.30;13.40;;;18.40;99.90;;;;;;4412928;32;20147;-70
2021/06/16 00:30:16;;;;;;;22.30;14.13;;;18.30;99.90;;;;;;4425667;32;20139;-70
2021/06/16 00:32:43;;;;;;;23.20;14.40;;;18.20;99.90;;;;;;4425367;32;20571;-70
2021/06/16 00:35:12;;;;;;;22.57;14.23;;;18.10;99.90;;;;;;4425701;32;20213;-70
2021/06/16 00:37:39;;;;;;;22.57;13.63;;;18.00;99.90;;;;;;4427080;32;20186;-70
2021/06/16 00:40:10;;;;;;;22.83;14.30;;;17.90;99.90;;;;;;4424945;32;20143;-70
2021/06/16 00:42:38;;;;;;;21.67;13.90;;;17.90;99.90;;;;;;4425591;32;20162;-70
2021/06/16 00:45:06;;;;;;;21.10;13.80;;;17.90;99.90;;;;;;4427031;32;20147;-70
2021/06/16 00:47:33;;;;;;;20.90;13.30;;;17.90;99.90;;;;;;4425454;32;20143;-70
2021/06/16 00:50:02;;;;;;;20.43;13.50;;;18.00;99.90;;;;;;4425483;32;20151;-70
2021/06/16 00:52:29;;;;;;;21.03;13.60;;;17.80;99.90;;;;;;4425394;32;20183;-69
2021/06/16 00:54:55;;;;;;;25.43;14.00;;;17.80;99.90;;;;;;4424891;32;20177;-70
2021/06/16 00:57:23;;;;;;;19.93;13.83;;;17.70;99.90;;;;;;4426121;32;20499;-70
2021/06/16 01:00:01;;;;;;;20.17;13.30;;;17.70;99.90;;;;;;4426164;32;20217;-70
2021/06/16 01:02:46;;;;;;;20.03;13.13;;;17.70;99.90;;;;;;4425427;32;20139;-70
2021/06/16 01:05:14;;;;;;;22.57;13.83;;;17.60;99.90;;;;;;4425320;32;20486;-70
2021/06/16 01:07:42;;;;;;;23.63;13.90;;;17.50;99.90;;;;;;4426125;32;20135;-70
2021/06/16 01:10:18;;;;;;;21.93;14.23;;;17.50;99.90;;;;;;4425334;32;20242;-70
2021/06/16 01:13:13;;;;;;;18.80;13.53;;;17.50;99.90;;;;;;4411082;32;20155;-70
2021/06/16 01:15:58;;;;;;;18.13;13.00;;;17.50;99.90;;;;;;4426330;32;20166;-70
2021/06/16 01:18:27;;;;;;;24.33;13.37;;;17.50;99.90;;;;;;4425109;32;20178;-70
2021/06/16 01:20:58;;;;;;;20.03;13.53;;;17.40;99.90;;;;;;4425060;32;20229;-70
2021/06/16 01:23:59;;;;;;;23.70;13.63;;;17.30;99.90;;;;;;4427117;32;20398;-70
2021/06/16 01:26:59;;;;;;;17.07;12.60;;;17.30;99.90;;;;;;4426811;32;20390;-70
2021/06/16 01:29:35;;;;;;;17.93;12.30;;;17.20;99.90;;;;;;4348330;33;20144;-70
2021/06/16 01:32:03;;;;;;;19.23;12.80;;;17.10;99.90;;;;;;4347654;33;20158;-70
2021/06/16 01:34:31;;;;;;;18.40;11.70;;;17.10;99.90;;;;;;4348304;33;20152;-69
2021/06/16 01:36:59;;;;;;;19.93;11.83;;;17.00;99.90;;;;;;4349458;33;20455;-70
2021/06/16 01:39:29;;;;;;;16.30;10.83;;;16.90;99.90;;;;;;4346803;33;20465;-70
2021/06/16 01:41:59;;;;;;;19.27;11.30;;;17.00;99.90;;;;;;4335194;33;20167;-70
2021/06/16 01:44:27;;;;;;;18.33;11.33;;;16.90;99.90;;;;;;4349077;33;20319;-70
2021/06/16 01:46:55;;;;;;;17.83;11.40;;;16.80;99.90;;;;;;4348095;33;20200;-70
2021/06/16 01:49:25;;;;;;;18.47;11.00;;;16.80;99.90;;;;;;4348851;33;20144;-70
2021/06/16 01:51:54;;;;;;;19.27;10.43;;;16.80;99.90;;;;;;4348777;33;20525;-70
2021/06/16 01:54:22;;;;;;;15.50;9.80;;;16.70;99.90;;;;;;4347198;33;20148;-70
2021/06/16 01:56:49;;;;;;;13.23;8.90;;;16.70;99.90;;;;;;4347139;33;20152;-70
2021/06/16 01:59:19;;;;;;;12.93;8.70;;;16.50;99.90;;;;;;4348206;33;20183;-69
2021/06/16 02:01:49;;;;;;;14.47;8.20;;;16.50;99.90;;;;;;4348024;33;20171;-70
2021/06/16 02:04:17;;;;;;;13.83;8.37;;;16.50;99.90;;;;;;4347361;33;20273;-70
2021/06/16 02:06:48;;;;;;;15.93;8.60;;;16.40;99.90;;;;;;4412119;32;20166;-69
2021/06/16 02:09:18;;;;;;;10.67;7.77;;;16.30;99.90;;;;;;4425531;32;20165;-70
2021/06/16 02:11:45;;;;;;;12.07;7.13;;;16.40;99.90;;;;;;4424371;32;20524;-70
2021/06/16 02:14:17;;;;;;;10.80;7.00;;;16.30;99.90;;;;;;4426230;32;20225;-70
2021/06/16 02:17:01;;;;;;;10.47;6.50;;;16.30;99.90;;;;;;4424282;32;20269;-70
2021/06/16 02:19:31;;;;;;;10.63;6.43;;;16.20;99.90;;;;;;4425177;32;20181;-70
2021/06/16 02:21:59;;;;;;;10.67;6.40;;;16.20;99.90;;;;;;4425924;32;20165;-70
2021/06/16 02:24:26;;;;;;;8.73;5.53;;;16.10;99.90;;;;;;4409798;32;20185;-70
2021/06/16 02:26:53;;;;;;;7.97;5.30;;;16.10;99.90;;;;;;4424156;32;20169;-70
2021/06/16 02:29:21;;;;;;;11.13;5.70;;;16.00;99.90;;;;;;4425535;32;20416;-70
2021/06/16 02:31:48;;;;;;;8.30;5.63;;;16.00;99.90;;;;;;4425441;32;20202;-70
2021/06/16 02:34:15;;;;;;;10.20;5.13;;;16.00;99.90;;;;;;4425474;32;20151;-70
2021/06/16 02:36:44;;;;;;;6.87;4.70;;;16.00;99.90;;;;;;4424105;32;20131;-70
2021/06/16 02:39:21;;;;;;;8.50;5.03;;;16.00;99.90;;;;;;4425435;32;20143;-70
2021/06/16 02:41:49;;;;;;;8.90;4.93;;;15.90;99.90;;;;;;4425547;32;20151;-70
2021/06/16 02:44:17;;;;;;;6.97;4.77;;;15.90;99.90;;;;;;4411761;32;20166;-71
2021/06/16 02:46:50;;;;;;;8.83;4.83;;;15.90;99.90;;;;;;4425351;32;20160;-70
2021/06/16 02:49:22;;;;;;;8.47;5.27;;;15.90;99.90;;;;;;4425391;32;20203;-70
2021/06/16 02:51:49;;;;;;;9.07;5.70;;;16.00;99.90;;;;;;4423793;32;20192;-70
2021/06/16 02:54:20;;;;;;;7.63;5.50;;;15.90;99.90;;;;;;4423826;32;20169;-70
2021/06/16 02:56:48;;;;;;;12.00;6.33;;;15.90;99.90;;;;;;4425299;32;20134;-70
2021/06/16 02:59:16;;;;;;;8.67;6.30;;;15.90;99.90;;;;;;4425107;32;20201;-70
2021/06/16 03:01:45;;;;;;;9.10;6.20;;;15.90;99.90;;;;;;4423652;32;20206;-70
2021/06/16 03:04:14;;;;;;;10.10;5.87;;;15.90;99.90;;;;;;4425096;32;20473;-69
2021/06/16 03:06:42;;;;;;;12.00;5.87;;;15.90;99.90;;;;;;4423643;32;20147;-69
2021/06/16 03:09:10;;;;;;;9.47;5.13;;;15.90;99.90;;;;;;4425011;32;20205;-69
2021/06/16 03:11:38;;;;;;;7.83;5.20;;;15.90;99.90;;;;;;4423427;32;20196;-70
2021/06/16 03:14:05;;;;;;;7.60;5.00;;;15.90;99.90;;;;;;4423198;32;20196;-69
2021/06/16 03:16:33;;;;;;;6.93;4.60;;;15.80;99.90;;;;;;4423047;32;20462;-69
2021/06/16 03:19:01;;;;;;;6.20;4.57;;;15.90;99.90;;;;;;4423239;32;20241;-69
2021/06/16 03:21:29;;;;;;;8.63;4.67;;;15.90;99.90;;;;;;4423097;32;20554;-69
2021/06/16 03:23:58;;;;;;;8.43;4.33;;;15.90;99.90;;;;;;4423395;32;20461;-70
2021/06/16 03:26:27;;;;;;;7.57;4.10;;;16.00;99.90;;;;;;4423305;32;20142;-69
2021/06/16 03:28:55;;;;;;;6.40;4.10;;;16.00;99.90;;;;;;4424746;32;20233;-69
2021/06/16 03:31:22;;;;;;;6.30;3.40;;;16.00;99.90;;;;;;4424238;32;20198;-69
2021/06/16 03:33:50;;;;;;;6.23;3.50;;;16.10;99.90;;;;;;4424899;32;20500;-70
2021/06/16 03:36:19;;;;;;;5.43;3.20;;;16.10;99.90;;;;;;4424791;32;20142;-70
2021/06/16 03:38:46;;;;;;;8.67;3.10;;;16.10;99.90;;;;;;4425143;32;20453;-70
2021/06/16 03:41:14;;;;;;;5.53;2.80;;;16.00;99.90;;;;;;4424714;32;20202;-70
2021/06/16 03:43:42;;;;;;;7.90;2.80;;;15.90;99.90;;;;;;4424298;32;20188;-70
2021/06/16 03:46:09;;;;;;;5.13;2.80;;;16.00;99.90;;;;;;4424748;32;20130;-70
2021/06/16 03:48:40;;;;;;;5.33;2.73;;;16.00;99.90;;;;;;4423223;32;20186;-70
2021/06/16 03:51:07;;;;;;;4.80;2.60;;;16.00;99.90;;;;;;4424864;32;20143;-70
2021/06/16 03:53:35;;;;;;;4.67;2.57;;;16.00;99.90;;;;;;4424606;32;20202;-70
2021/06/16 03:56:03;;;;;;;6.37;2.63;;;16.00;99.90;;;;;;4423194;32;20135;-70
2021/06/16 03:58:30;;;;;;;5.90;2.60;;;16.10;99.90;;;;;;4423117;32;20200;-70
2021/06/16 04:00:57;;;;;;;7.77;2.83;;;16.10;99.90;;;;;;4424901;32;20147;-70
2021/06/16 04:03:25;;;;;;;4.67;2.27;;;16.00;99.90;;;;;;4422898;32;20155;-70
2021/06/16 04:05:52;;;;;;;3.20;2.40;;;15.90;99.90;;;;;;4423211;32;20498;-70
2021/06/16 04:08:21;;;;;;;3.63;2.30;;;15.90;99.90;;;;;;4423048;32;20139;-70
2021/06/16 04:10:49;;;;;;;4.70;2.20;;;15.90;99.90;;;;;;4424828;32;20135;-70
2021/06/16 04:13:17;;;;;;;4.43;2.27;;;16.00;99.90;;;;;;4423912;32;20362;-70
2021/06/16 04:15:44;;;;;;;4.43;2.40;;;16.00;99.90;;;;;;4424471;32;20146;-69
2021/06/16 04:18:11;;;;;;;3.57;2.30;;;16.10;99.90;;;;;;4424752;32;20135;-71
2021/06/16 04:20:38;;;;;;;4.03;2.27;;;16.00;99.90;;;;;;4423001;32;20155;-71
2021/06/16 04:23:04;;;;;;;3.97;2.40;;;16.10;99.90;;;;;;4422947;32;20135;-71
2021/06/16 04:25:32;;;;;;;4.30;2.40;;;16.00;99.90;;;;;;4423164;32;20138;-71
2021/06/16 04:27:59;;;;;;;4.90;2.30;;;16.10;99.90;;;;;;4424867;32;20441;-71
2021/06/16 04:30:27;;;;;;;6.83;2.43;;;16.00;99.90;;;;;;4425543;32;20131;-70
2021/06/16 04:32:54;;;;;;;5.00;2.50;;;16.10;99.90;;;;;;4427287;32;20414;-70
2021/06/16 04:35:21;;;;;;;4.80;2.30;;;16.10;99.90;;;;;;4425007;32;20191;-70
2021/06/16 04:37:48;;;;;;;6.13;2.57;;;16.20;99.90;;;;;;4425561;32;20144;-70
2021/06/16 04:40:15;;;;;;;5.40;2.50;;;16.20;99.90;;;;;;4427099;32;20178;-70
2021/06/16 04:42:43;;;;;;;5.07;2.10;;;16.20;99.90;;;;;;4426892;32;20165;-70
2021/06/16 04:45:10;;;;;;;5.17;2.27;;;16.30;99.90;;;;;;4425404;32;20207;-70
2021/06/16 04:47:37;;;;;;;5.13;2.37;;;16.30;99.90;;;;;;4424130;32;20465;-70
2021/06/16 04:50:09;;;;;;;4.03;2.60;;;16.30;99.90;;;;;;4426358;32;20483;-70
2021/06/16 04:52:36;;;;;;;6.17;2.20;;;16.30;99.90;;;;;;4426381;32;20184;-70
2021/06/16 04:55:05;;;;;;;5.30;2.50;;;16.50;99.90;;;;;;4426538;32;20197;-71
2021/06/16 04:57:32;;;;;;;3.13;2.10;;;16.50;99.90;;;;;;4426094;32;20214;-71
2021/06/16 04:59:59;;;;;;;5.57;2.27;;;16.60;99.90;;;;;;4425204;32;20208;-70
2021/06/16 05:02:26;;;;;;;5.40;2.70;;;16.60;99.90;;;;;;4425256;32;20530;-71
2021/06/16 05:04:53;;;;;;;5.37;2.50;;;16.60;99.90;;;;;;4426565;32;20164;-70
2021/06/16 05:07:20;;;;;;;5.97;2.13;;;16.70;99.90;;;;;;4424759;32;20151;-70
2021/06/16 05:09:47;;;;;;;5.27;2.47;;;16.70;99.90;;;;;;4424850;32;20169;-71
2021/06/16 05:12:13;;;;;;;3.80;2.10;;;16.80;99.90;;;;;;4426692;32;20147;-70
2021/06/16 05:14:41;;;;;;;6.97;2.60;;;16.90;99.90;;;;;;4426604;32;20457;-72
2021/06/16 05:17:08;;;;;;;5.07;2.30;;;16.90;99.90;;;;;;4425063;32;20139;-70
2021/06/16 05:19:35;;;;;;;4.77;2.40;;;17.00;99.90;;;;;;4424792;32;20166;-70
2021/06/16 05:22:10;;;;;;;6.33;2.30;;;17.10;99.90;;;;;;4424396;32;20177;-71
2021/06/16 05:24:37;;;;;;;5.30;2.00;;;17.00;99.90;;;;;;4426645;32;20166;-70
2021/06/16 05:27:04;;;;;;;5.47;2.17;;;17.00;99.90;;;;;;4426544;32;20161;-70
2021/06/16 05:29:32;;;;;;;4.13;2.03;;;17.10;99.90;;;;;;4424662;32;20139;-71
2021/06/16 05:31:59;;;;;;;4.20;2.20;;;17.20;99.90;;;;;;4424212;32;20408;-70
2021/06/16 05:34:26;;;;;;;6.17;2.30;;;17.30;99.90;;;;;;4424844;32;20146;-70
2021/06/16 05:36:53;;;;;;;4.30;2.20;;;17.50;99.90;;;;;;4424797;32;20184;-70
2021/06/16 05:39:20;;;;;;;5.47;2.70;;;17.60;99.90;;;;;;4426153;32;20277;-70
2021/06/16 05:41:48;;;;;;;4.63;2.20;;;17.60;99.90;;;;;;4411022;32;20241;-70
2021/06/16 05:44:15;;;;;;;9.03;2.50;;;17.70;99.90;;;;;;4426629;32;20135;-70
2021/06/16 05:46:42;;;;;;;6.17;2.40;;;17.60;99.90;;;;;;4425425;32;20202;-70
2021/06/16 05:49:10;;;;;;;7.20;2.70;;;17.70;99.90;;;;;;4424871;32;20441;-70
2021/06/16 05:51:37;;;;;;;7.20;2.33;;;17.70;99.90;;;;;;4424942;32;20192;-70
2021/06/16 05:54:09;;;;;;;3.63;2.20;;;17.70;99.90;;;;;;4426377;32;20158;-70
2021/06/16 05:56:37;;;;;;;5.50;2.53;;;17.70;99.90;;;;;;4426983;32;20222;-70
2021/06/16 05:59:05;;;;;;;7.27;2.60;;;17.80;99.90;;;;;;4426470;32;20181;-70
2021/06/16 06:01:33;;;;;;;8.03;2.57;;;17.80;99.90;;;;;;4425505;32;20208;-70
2021/06/16 06:04:05;;;;;;;7.10;2.40;;;18.00;99.90;;;;;;4424689;32;20464;-70
2021/06/16 06:06:37;;;;;;;12.63;2.73;;;18.10;99.90;;;;;;4426544;32;20139;-70
2021/06/16 06:09:06;;;;;;;8.70;2.67;;;18.20;99.90;;;;;;4426200;32;20240;-70
2021/06/16 06:11:34;;;;;;;4.07;2.20;;;18.30;99.90;;;;;;4426024;32;20147;-70
2021/06/16 06:14:02;;;;;;;4.43;2.40;;;18.40;99.90;;;;;;4424482;32;20170;-69
2021/06/16 06:16:29;;;;;;;4.93;2.30;;;18.50;99.90;;;;;;4424847;32;20150;-70
2021/06/16 06:18:56;;;;;;;5.43;2.20;;;18.60;99.90;;;;;;4425587;32;20198;-69
2021/06/16 06:21:30;;;;;;;6.43;2.50;;;18.60;99.90;;;;;;4423927;32;20155;-69
2021/06/16 06:24:01;;;;;;;4.83;2.27;;;18.60;99.90;;;;;;4425910;32;20150;-70
2021/06/16 06:26:34;;;;;;;4.00;2.20;;;18.80;99.90;;;;;;4424328;32;20198;-69
2021/06/16 06:29:02;;;;;;;4.33;2.27;;;18.80;99.90;;;;;;4424526;32;20183;-70
2021/06/16 06:31:30;;;;;;;4.60;2.40;;;18.80;99.90;;;;;;4424222;32;20177;-68
2021/06/16 06:33:57;;;;;;;6.70;2.23;;;18.80;99.90;;;;;;4423952;32;20154;-70
2021/06/16 06:36:24;;;;;;;5.40;2.60;;;18.90;99.90;;;;;;4424121;32;20416;-69
2021/06/16 06:38:52;;;;;;;5.60;2.40;;;19.10;99.90;;;;;;4423866;32;20166;-68
2021/06/16 06:41:19;;;;;;;10.13;2.90;;;19.20;99.90;;;;;;4424043;32;20170;-69
2021/06/16 06:43:46;;;;;;;5.87;2.33;;;19.20;99.90;;;;;;4423992;32;20142;-70
2021/06/16 06:46:13;;;;;;;6.50;2.50;;;19.20;99.90;;;;;;4424114;32;20566;-69
2021/06/16 06:48:40;;;;;;;7.00;2.77;;;19.00;99.90;;;;;;4425097;32;20176;-70
2021/06/16 06:51:08;;;;;;;5.63;2.50;;;19.20;99.90;;;;;;4422833;32;20181;-69
2021/06/16 06:53:35;;;;;;;6.30;2.70;;;19.20;99.90;;;;;;4423777;32;20206;-69
2021/06/16 06:56:02;;;;;;;7.20;2.20;;;19.30;99.90;;;;;;4425371;32;20309;-69
2021/06/16 06:58:29;;;;;;;4.63;2.30;;;19.50;99.90;;;;;;4424346;32;20139;-68
2021/06/16 07:00:56;;;;;;;4.70;2.27;;;19.40;99.90;;;;;;4425230;32;20200;-68
2021/06/16 07:03:24;;;;;;;6.37;2.40;;;19.50;99.90;;;;;;4425331;32;20142;-68
2021/06/16 07:05:51;;;;;;;6.40;2.50;;;19.50;99.90;;;;;;4423838;32;20143;-68
2021/06/16 07:08:17;;;;;;;5.53;2.13;;;19.60;99.90;;;;;;4425303;32;20446;-68
2021/06/16 07:10:44;;;;;;;6.37;2.60;;;19.70;99.90;;;;;;4425212;32;20143;-68
2021/06/16 07:13:11;;;;;;;4.10;2.20;;;19.80;99.90;;;;;;4425224;32;20233;-69
2021/06/16 07:15:38;;;;;;;5.93;2.30;;;19.80;99.90;;;;;;4411707;32;20147;-69
2021/06/16 07:18:05;;;;;;;4.73;2.07;;;19.90;99.90;;;;;;4424239;32;20131;-69
2021/06/16 07:20:33;;;;;;;6.83;2.27;;;20.00;99.90;;;;;;4424007;32;20234;-69
2021/06/16 07:23:00;;;;;;;8.17;2.50;;;20.20;99.90;;;;;;4423734;32;20176;-69
2021/06/16 07:25:27;;;;;;;6.20;2.20;;;20.30;99.90;;;;;;4423624;32;20504;-69
2021/06/16 07:27:54;;;;;;;5.17;2.30;;;20.40;99.90;;;;;;4423546;32;20417;-69
2021/06/16 07:30:21;;;;;;;5.47;2.10;;;20.60;99.90;;;;;;4424113;32;20516;-69
2021/06/16 07:32:48;;;;;;;5.37;2.50;;;20.70;99.90;;;;;;4421536;32;20173;-68
2021/06/16 07:35:15;;;;;;;8.43;2.50;;;20.80;99.90;;;;;;4423671;32;20180;-68
2021/06/16 07:37:42;;;;;;;5.43;2.43;;;20.90;99.90;;;;;;4423928;32;20135;-67
2021/06/16 07:40:10;;;;;;;4.73;2.33;;;20.90;99.90;;;;;;4422794;32;20510;-67
2021/06/16 07:42:39;;;;;;;4.93;1.93;;;20.90;99.90;;;;;;4422723;32;20154;-69
2021/06/16 07:45:08;;;;;;;3.60;2.10;;;20.90;99.90;;;;;;4423636;32;20150;-67
2021/06/16 07:47:35;;;;;;;5.77;2.00;;;20.90;99.90;;;;;;4423336;32;20173;-67
2021/06/16 07:50:05;;;;;;;6.03;2.40;;;21.00;99.90;;;;;;4423030;32;20210;-67
2021/06/16 07:52:33;;;;;;;3.73;2.13;;;21.00;99.90;;;;;;4423377;32;20225;-67
2021/06/16 07:55:00;;;;;;;7.67;2.27;;;20.90;99.90;;;;;;4425159;32;20136;-69
2021/06/16 07:57:27;;;;;;;4.07;1.70;;;21.10;99.90;;;;;;4425205;32;20143;-68
2021/06/16 07:59:54;;;;;;;6.17;2.30;;;21.20;99.60;;;;;;4422768;32;20162;-67
2021/06/16 08:02:21;;;;;;;4.40;2.30;;;21.30;99.30;;;;;;4424316;32;20142;-68
2021/06/16 08:04:48;;;;;;;6.27;1.90;;;21.40;99.10;;;;;;4427946;32;20135;-68
2021/06/16 08:07:15;;;;;;;4.63;2.37;;;21.50;99.90;;;;;;4426486;32;20159;-68
2021/06/16 08:09:42;;;;;;;4.33;2.37;;;21.60;97.90;;;;;;4427867;32;20170;-67
2021/06/16 08:12:10;;;;;;;4.63;2.20;;;21.60;97.90;;;;;;4426293;32;20162;-67
2021/06/16 08:14:38;;;;;;;5.43;2.47;;;21.60;98.50;;;;;;4425914;32;20410;-68
2021/06/16 08:17:06;;;;;;;7.57;2.47;;;21.80;98.80;;;;;;4426597;32;20139;-68
2021/06/16 08:19:34;;;;;;;4.27;2.30;;;22.00;99.20;;;;;;4427177;32;20151;-68
2021/06/16 08:22:02;;;;;;;4.93;2.20;;;21.90;97.40;;;;;;4427400;32;20347;-68
2021/06/16 08:24:29;;;;;;;5.83;2.17;;;22.00;97.60;;;;;;4426137;32;20139;-68
2021/06/16 08:26:56;;;;;;;6.03;2.40;;;22.60;96.00;;;;;;4418258;32;20204;-67
2021/06/16 08:29:23;;;;;;;4.28;2.28;;;23.20;94.20;;;;;;4429926;32;20162;-68
2021/06/16 08:31:50;;;;;;;6.47;2.53;;;23.90;92.50;;;;;;4441940;32;20404;-68
2021/06/16 08:34:17;;;;;;;7.97;2.62;;;24.50;91.20;;;;;;4441420;32;20468;-68
2021/06/16 08:36:45;;;;;;;7.97;2.70;;;24.80;87.50;;;;;;4441276;32;20162;-68
2021/06/16 08:39:23;;;;;;;4.18;2.53;;;25.10;87.20;;;;;;4442775;32;20142;-68
2021/06/16 08:41:51;;;;;;;6.90;2.50;;;25.40;84.60;;;;;;4442954;32;20186;-68
2021/06/16 08:44:18;;;;;;;5.57;2.90;;;26.10;80.90;;;;;;4441539;32;20147;-68
2021/06/16 08:46:45;;;;;;;7.50;2.83;;;26.40;79.00;;;;;;4442823;32;20142;-68
2021/06/16 08:49:12;;;;;;;8.05;2.53;;;26.50;76.70;;;;;;4442779;32;20217;-68
2021/06/16 08:51:40;;;;;;;6.60;2.62;;;26.90;76.00;;;;;;4441650;32;20138;-68
2021/06/16 08:54:08;;;;;;;7.50;2.58;;;27.00;72.80;;;;;;4442828;32;20398;-69
2021/06/16 08:56:35;;;;;;;7.22;2.40;;;27.00;71.80;;;;;;4441736;32;20214;-68
2021/06/16 08:59:03;;;;;;;8.88;3.30;;;27.10;70.20;;;;;;4442000;32;20178;-69
2021/06/16 09:01:30;;;;;;;6.20;2.70;;;26.80;72.60;;;;;;4440695;32;20325;-68
2021/06/16 09:03:57;;;;;;;5.15;2.53;;;27.00;70.30;;;;;;4440988;32;20146;-68
2021/06/16 09:06:31;;;;;;;7.00;2.50;;;27.20;70.70;;;;;;4442449;32;20287;-69
2021/06/16 09:09:08;;;;;;;6.35;2.28;;;27.30;67.60;;;;;;4442079;32;20176;-69
2021/06/16 09:11:42;;;;;;;5.18;2.62;;;27.60;65.70;;;;;;4441112;32;20161;-68
2021/06/16 09:14:20;;;;;;;6.50;2.60;;;27.70;64.50;;;;;;4442159;32;20200;-69
2021/06/16 09:16:49;;;;;;;4.50;2.50;;;27.60;66.70;;;;;;4442399;32;20207;-69
2021/06/16 09:19:20;;;;;;;4.72;2.20;;;27.60;64.60;;;;;;4441096;32;20134;-69
2021/06/16 09:21:49;;;;;;;5.22;2.37;;;27.70;62.90;;;;;;4442258;32;20154;-69
2021/06/16 09:24:16;;;;;;;7.60;2.80;;;27.90;62.00;;;;;;4440719;32;20151;-69
2021/06/16 09:26:44;;;;;;;5.75;2.72;;;27.70;61.40;;;;;;4441534;32;20526;-68
2021/06/16 09:29:11;;;;;;;6.30;2.60;;;27.70;61.40;;;;;;4442220;32;20150;-69
2021/06/16 09:31:44;;;;;;;5.62;2.40;;;27.90;61.20;;;;;;4442209;32;20156;-69
2021/06/16 09:34:17;;;;;;;5.12;2.37;;;28.00;60.50;;;;;;4441150;32;20183;-69
2021/06/16 09:36:54;;;;;;;9.57;2.53;;;28.10;60.80;;;;;;4442109;32;20169;-69
2021/06/16 09:39:24;;;;;;;7.28;3.10;;;28.50;62.10;;;;;;4442186;32;20138;-69
2021/06/16 09:41:56;;;;;;;4.87;2.50;;;28.60;57.90;;;;;;4441953;32;20293;-69
2021/06/16 09:44:38;;;;;;;6.25;2.60;;;28.30;58.00;;;;;;4442091;32;20186;-70
2021/06/16 09:47:22;;;;;;;4.45;2.58;;;28.60;59.80;;;;;;4440208;32;20199;-69
2021/06/16 09:49:52;;;;;;;5.62;3.28;;;28.50;57.80;;;;;;4441501;32;20200;-69
2021/06/16 09:52:40;;;;;;;6.78;2.53;;;28.50;57.80;;;;;;4429668;32;20163;-69
2021/06/16 09:55:22;;;;;;;4.15;2.62;;;28.80;58.30;;;;;;4426559;32;20222;-69
2021/06/16 09:58:10;;;;;;;5.07;2.53;;;28.90;57.10;;;;;;4431712;32;20158;-69
2021/06/16 10:00:45;;;;;;;7.72;3.17;;;29.20;56.90;;;;;;4441224;32;20165;-70
2021/06/16 10:03:21;;;;;;;4.93;3.12;;;29.40;57.00;;;;;;4441129;32;20179;-68
2021/06/16 10:06:10;;;;;;;8.35;3.40;;;29.40;56.30;;;;;;4441237;32;20415;-69
2021/06/16 10:08:46;;;;;;;7.05;3.47;;;29.60;56.40;;;;;;4439411;32;20205;-67
2021/06/16 10:11:15;;;;;;;5.18;2.60;;;29.60;56.20;;;;;;4440644;32;20190;-68
2021/06/16 10:13:43;;;;;;;7.87;3.42;;;29.90;55.60;;;;;;4440623;32;20233;-69
2021/06/16 10:16:11;;;;;;;8.32;3.60;;;30.10;55.30;;;;;;4439348;32;20131;-68
2021/06/16 10:18:40;;;;;;;6.43;3.80;;;30.00;54.90;;;;;;4439740;32;20165;-68
2021/06/16 10:21:08;;;;;;;6.20;3.75;;;30.10;54.90;;;;;;4439640;32;20417;-69
2021/06/16 10:23:35;;;;;;;8.27;3.70;;;30.40;52.80;;;;;;4441387;32;20506;-67
2021/06/16 10:26:13;;;;;;;5.78;3.37;;;30.30;53.80;;;;;;4440764;32;20165;-68
2021/06/16 10:28:51;;;;;;;5.65;3.12;;;30.50;53.00;;;;;;4439948;32;20146;-68
2021/06/16 10:31:20;;;;;;;6.05;2.70;;;30.70;52.80;;;;;;4441514;32;20160;-68
2021/06/16 10:33:57;;;;;;;5.35;3.03;;;31.00;51.90;;;;;;4441119;32;20138;-69
2021/06/16 10:36:25;;;;;;;7.62;3.80;;;31.40;52.30;;;;;;4441134;32;20138;-68
2021/06/16 10:38:58;;;;;;;7.32;3.30;;;31.70;52.70;;;;;;4439583;32;20202;-69
2021/06/16 10:41:37;;;;;;;6.55;4.00;;;31.90;52.30;;;;;;4440149;32;20166;-68
2021/06/16 10:44:19;;;;;;;8.02;3.90;;;32.00;50.70;;;;;;4439818;32;20376;-68
2021/06/16 10:46:59;;;;;;;7.03;3.30;;;32.20;50.00;;;;;;4440979;32;20134;-69
2021/06/16 10:52:11;;;;;;;5.97;3.40;;;31.90;50.10;;;;;;4440918;32;20177;-69
2021/06/16 10:54:38;;;;;;;5.82;3.42;;;32.10;50.10;;;;;;4439487;32;20150;-70
2021/06/16 10:57:10;;;;;;;5.35;3.30;;;31.90;48.90;;;;;;4440958;32;20166;-70
2021/06/16 10:59:43;;;;;;;6.90;3.47;;;32.20;48.30;;;;;;4439474;32;20142;-70
2021/06/16 11:02:14;;;;;;;5.55;3.40;;;32.40;49.30;;;;;;4439578;32;20158;-70
2021/06/16 11:04:42;;;;;;;5.62;3.30;;;32.80;49.10;;;;;;4440694;32;20459;-70
2021/06/16 11:07:31;;;;;;;6.47;3.45;;;32.90;48.30;;;;;;4437577;32;20452;-70
2021/06/16 11:09:59;;;;;;;4.68;3.30;;;33.30;49.20;;;;;;4424690;32;20162;-70
2021/06/16 11:12:33;;;;;;;4.90;3.15;;;33.10;46.90;;;;;;4440632;32;20150;-69
2021/06/16 11:15:01;;;;;;;6.15;3.28;;;33.30;46.50;;;;;;4440106;32;20185;-69
2021/06/16 11:17:34;;;;;;;9.80;3.80;;;33.40;48.50;;;;;;4438791;32;20219;-68
2021/06/16 11:20:25;;;;;;;7.78;3.62;;;33.30;47.00;;;;;;4439028;32;20231;-69
2021/06/16 11:22:55;;;;;;;7.55;3.70;;;33.30;47.00;;;;;;4440398;32;20139;-69
2021/06/16 11:25:28;;;;;;;6.00;3.20;;;33.60;46.50;;;;;;4440408;32;20205;-69
2021/06/16 11:28:07;;;;;;;7.40;2.90;;;33.70;46.00;;;;;;4440367;32;20184;-69
2021/06/16 11:30:53;;;;;;;5.43;3.35;;;33.80;45.50;;;;;;4440782;32;20476;-70
2021/06/16 11:33:23;;;;;;;4.50;3.17;;;34.10;46.20;;;;;;4440782;32;20250;-69
2021/06/16 11:35:50;;;;;;;4.60;3.40;;;34.40;46.30;;;;;;4439999;32;20361;-67
2021/06/16 11:38:17;;;;;;;6.65;3.08;;;34.50;44.60;;;;;;4440575;32;20183;-68
2021/06/16 11:41:15;;;;;;;7.50;3.33;;;34.90;43.10;;;;;;4443611;32;20162;-68
2021/06/16 11:43:47;;;;;;;6.85;3.40;;;35.10;43.10;;;;;;4442066;32;20142;-69
2021/06/16 11:46:25;;;;;;;6.43;3.83;;;35.10;43.90;;;;;;4443396;32;20494;-69
2021/06/16 11:49:01;;;;;;;5.10;3.53;;;35.20;43.10;;;;;;4443516;32;20181;-68
2021/06/16 11:51:41;;;;;;;6.10;3.30;;;35.20;44.00;;;;;;4441988;32;20225;-69
2021/06/16 11:54:30;;;;;;;4.93;3.37;;;35.30;43.40;;;;;;4442319;32;20478;-69
2021/06/16 11:57:01;;;;;;;5.82;3.47;;;35.20;43.40;;;;;;4442782;32;20138;-69
2021/06/16 11:59:30;;;;;;;6.55;3.50;;;35.20;42.30;;;;;;4442795;32;20147;-69
2021/06/16 12:02:24;;;;;;;4.80;3.40;;;35.30;42.80;;;;;;4441735;32;20147;-69
2021/06/16 12:05:06;;;;;;;4.65;3.10;;;35.30;42.80;;;;;;4441256;32;20166;-68
2021/06/16 12:07:41;;;;;;;5.85;3.10;;;35.90;43.30;;;;;;4438684;32;20186;-68
2021/06/16 12:10:21;;;;;;;7.10;3.75;;;35.80;42.10;;;;;;4433162;32;20150;-69
2021/06/16 12:12:54;;;;;;;5.28;3.70;;;35.60;42.60;;;;;;4427867;32;20139;-68
2021/06/16 12:15:29;;;;;;;5.47;3.22;;;35.30;42.50;;;;;;4428099;32;20516;-69
2021/06/16 12:18:02;;;;;;;6.03;3.55;;;34.90;44.70;;;;;;4426174;32;20395;-69
2021/06/16 12:20:41;;;;;;;6.47;3.47;;;35.20;45.30;;;;;;4425967;32;20434;-69
2021/06/16 12:23:20;;;;;;;6.22;3.67;;;35.70;43.80;;;;;;4425419;32;20484;-68
2021/06/16 12:25:47;;;;;;;5.68;3.42;;;35.30;42.70;;;;;;4426632;32;20143;-69
2021/06/16 12:28:15;;;;;;;5.65;3.55;;;35.20;43.80;;;;;;4426048;32;20334;-68
2021/06/16 12:30:43;;;;;;;8.65;3.42;;;35.20;43.80;;;;;;4425323;32;20140;-68
2021/06/16 12:33:23;;;;;;;5.78;3.45;;;35.60;43.40;;;;;;4426517;32;20166;-69
2021/06/16 12:36:21;;;;;;;5.57;3.22;;;36.10;41.40;;;;;;4484691;31;20274;-69
2021/06/16 12:39:06;;;;;;;8.27;3.45;;;35.80;42.80;;;;;;4469903;32;20177;-68
2021/06/16 12:41:36;;;;;;;7.22;3.40;;;36.10;41.40;;;;;;4469785;32;20183;-68
2021/06/16 12:44:33;;;;;;;5.07;3.40;;;36.40;40.50;;;;;;4467582;32;20408;-68
2021/06/16 12:47:06;;;;;;;5.37;3.50;;;36.50;40.10;;;;;;4468373;32;20444;-69
2021/06/16 12:49:53;;;;;;;5.53;3.33;;;36.40;39.80;;;;;;4469285;32;20157;-69
2021/06/16 12:52:32;;;;;;;4.97;3.60;;;36.20;40.60;;;;;;4467903;32;20206;-70
2021/06/16 12:55:11;;;;;;;6.00;3.35;;;36.30;39.90;;;;;;4467795;32;20176;-70
2021/06/16 12:57:54;;;;;;;6.47;3.10;;;36.30;41.00;;;;;;4468319;32;20179;-69
2021/06/16 13:00:27;;;;;;;7.28;3.37;;;36.60;39.70;;;;;;4469732;32;20210;-69
2021/06/16 13:02:54;;;;;;;6.03;3.30;;;36.60;40.00;;;;;;4467870;32;20157;-69